Time;durP1;ratioP1;P1;durP2;ratioP2;P2;SDS_P1;SDS_P2;PMS_P1;PMS_P2;Temp;Humidity;BMP_temperature;BMP_pressure;BME280_temperature;BME280_humidity;BME280_pressure;Samples;Min_cycle;Max_cycle;Signal;HPM_P1;HPM_P2
2024/02/04 00:01:07;;;;;;;22.00;13.73;;;10.30;99.90;;;10.20;97.76;101237.91;5014880;28;20056;-81
2024/02/04 00:03:34;;;;;;;17.75;12.05;;;10.30;99.90;;;10.17;97.48;101233.78;5015005;28;20045;-81
2024/02/04 00:06:02;;;;;;;19.40;12.85;;;10.30;99.90;;;10.16;97.62;101250.78;5001228;28;20211;-82
2024/02/04 00:08:29;;;;;;;20.48;12.07;;;10.30;99.90;;;10.18;97.44;101251.41;5036045;28;20046;-82
2024/02/04 00:10:57;;;;;;;17.60;11.88;;;10.30;99.90;;;10.17;97.64;101243.63;5017175;28;20046;-81
2024/02/04 00:13:24;;;;;;;20.25;12.48;;;10.30;99.90;;;10.17;97.41;101227.63;5035190;28;20041;-82
2024/02/04 00:15:54;;;;;;;17.83;11.65;;;10.30;99.90;;;10.13;97.19;101232.50;5018923;28;20037;-81
2024/02/04 00:18:23;;;;;;;16.73;10.68;;;10.30;99.90;;;10.12;97.18;101228.19;5017677;28;20045;-81
2024/02/04 00:20:50;;;;;;;15.27;10.77;;;10.30;99.90;;;10.13;97.12;101211.19;5035777;28;20096;-81
2024/02/04 00:23:18;;;;;;;18.10;10.82;;;10.30;99.90;;;10.14;97.06;101202.16;4999109;28;20073;-81
2024/02/04 00:25:45;;;;;;;16.17;10.80;;;10.30;99.90;;;10.09;96.75;101209.09;5008567;28;20046;-81
2024/02/04 00:28:12;;;;;;;14.57;9.18;;;10.30;99.90;;;10.04;96.92;101202.47;5050324;28;20057;-81
2024/02/04 00:30:40;;;;;;;13.23;8.93;;;10.30;99.90;;;10.05;97.17;101216.63;5035165;28;20042;-81
2024/02/04 00:33:08;;;;;;;14.35;8.55;;;10.20;99.90;;;10.10;97.32;101206.22;5001823;28;20072;-81
2024/02/04 00:35:37;;;;;;;11.85;7.78;;;10.30;99.90;;;10.14;97.29;101220.00;5034579;28;20104;-81
2024/02/04 00:38:05;;;;;;;11.57;7.13;;;10.30;99.90;;;10.13;97.09;101213.84;5035516;28;20049;-81
2024/02/04 00:40:32;;;;;;;11.30;6.40;;;10.30;99.90;;;10.15;97.03;101219.84;5035766;28;20496;-81
2024/02/04 00:43:00;;;;;;;10.27;6.20;;;10.30;99.90;;;10.12;97.24;101230.03;5035519;28;20064;-81
2024/02/04 00:45:27;;;;;;;8.80;5.75;;;10.30;99.90;;;10.12;97.23;101230.88;5017099;28;20037;-81
2024/02/04 00:47:54;;;;;;;8.95;5.03;;;10.30;99.90;;;10.11;97.36;101223.88;5035068;28;20555;-81
2024/02/04 00:50:22;;;;;;;6.82;4.72;;;10.30;99.90;;;10.11;97.37;101215.88;5017316;28;20052;-81
2024/02/04 00:52:53;;;;;;;6.85;4.40;;;10.30;99.90;;;10.10;97.67;101227.53;5050916;28;20061;-81
2024/02/04 00:55:21;;;;;;;8.05;3.70;;;10.30;99.90;;;10.13;97.91;101229.00;5017274;28;20144;-81
2024/02/04 00:57:48;;;;;;;7.55;3.50;;;10.30;99.90;;;10.12;97.98;101224.72;5017226;28;20033;-81
2024/02/04 01:00:17;;;;;;;5.25;3.33;;;10.30;99.90;;;10.11;97.89;101217.72;5017642;28;20592;-81
2024/02/04 01:02:44;;;;;;;5.70;3.60;;;10.30;99.90;;;10.08;98.39;101210.94;5066200;28;20037;-81
2024/02/04 01:05:14;;;;;;;7.78;3.67;;;10.30;99.90;;;10.07;98.24;101215.44;5055566;28;20037;-81
2024/02/04 01:07:41;;;;;;;6.97;4.22;;;10.20;99.90;;;10.05;98.23;101213.97;5021297;28;20455;-81
2024/02/04 01:10:12;;;;;;;7.40;4.53;;;10.20;99.90;;;10.07;98.33;101209.28;5055719;28;20041;-81
2024/02/04 01:12:39;;;;;;;7.65;4.53;;;10.20;99.90;;;10.07;98.61;101211.94;5021967;28;20041;-81
2024/02/04 01:15:08;;;;;;;6.55;4.20;;;10.20;99.90;;;10.09;98.62;101209.09;5017544;28;20053;-81
2024/02/04 01:17:35;;;;;;;8.50;4.10;;;10.30;99.90;;;10.08;98.60;101216.25;5017639;28;20523;-81
2024/02/04 01:20:03;;;;;;;7.57;4.07;;;10.20;99.90;;;10.06;98.38;101216.47;5017222;28;20095;-81
2024/02/04 01:22:30;;;;;;;6.03;3.85;;;10.20;99.90;;;10.11;98.64;101217.72;5030010;28;20045;-81
2024/02/04 01:24:57;;;;;;;5.90;3.90;;;10.30;99.90;;;10.13;98.48;101219.19;5021523;28;20077;-81
2024/02/04 01:27:26;;;;;;;5.47;3.50;;;10.30;99.90;;;10.12;98.19;101219.38;5000746;28;20049;-81
2024/02/04 01:29:56;;;;;;;6.10;4.00;;;10.30;99.90;;;10.09;98.11;101212.56;5017059;28;20045;-81
2024/02/04 01:32:23;;;;;;;6.88;4.18;;;10.30;99.90;;;10.06;98.32;101220.97;4996082;28;20076;-81
2024/02/04 01:34:51;;;;;;;7.20;4.35;;;10.20;99.90;;;10.09;98.60;101223.22;5017195;28;20057;-81
2024/02/04 01:37:19;;;;;;;8.23;5.13;;;10.30;99.90;;;10.08;98.84;101218.91;5049866;28;20081;-81
2024/02/04 01:39:46;;;;;;;9.95;5.97;;;10.30;99.90;;;10.06;98.91;101231.63;5017014;28;20049;-81
2024/02/04 01:42:13;;;;;;;8.82;6.05;;;10.30;99.90;;;10.06;99.02;101228.97;5042096;28;20519;-81
2024/02/04 01:44:43;;;;;;;8.73;6.13;;;10.20;99.90;;;10.04;99.28;101228.31;5040853;28;20474;-81
2024/02/04 01:47:11;;;;;;;6.88;5.20;;;10.20;99.90;;;10.02;99.46;101230.34;5024438;28;20044;-81
2024/02/04 01:49:39;;;;;;;8.05;5.88;;;10.20;99.90;;;10.02;99.55;101227.69;5040964;28;20051;-82
2024/02/04 01:52:08;;;;;;;9.73;6.88;;;10.20;99.90;;;10.00;99.65;101216.38;5054804;28;20056;-82
2024/02/04 01:54:38;;;;;;;13.13;8.50;;;10.20;99.90;;;10.06;99.93;101210.31;5020254;28;20041;-82
2024/02/04 01:57:07;;;;;;;13.80;9.15;;;10.30;99.90;;;10.09;99.99;101201.91;5053906;28;20570;-82
2024/02/04 01:59:34;;;;;;;16.55;11.88;;;10.30;99.90;;;10.02;99.78;101204.53;5004663;28;20412;-81
2024/02/04 02:02:03;;;;;;;16.85;11.75;;;10.30;99.90;;;10.07;100.00;101201.28;5053425;28;20500;-81
2024/02/04 02:04:31;;;;;;;16.85;12.07;;;10.30;99.90;;;10.08;100.00;101197.59;5020719;28;20072;-81
2024/02/04 02:07:00;;;;;;;17.95;12.38;;;10.30;99.90;;;10.06;100.00;101194.31;5038246;28;20045;-81
2024/02/04 02:09:29;;;;;;;19.85;12.65;;;10.30;99.90;;;10.09;100.00;101191.25;5020556;28;20045;-81
2024/02/04 02:12:08;;;;;;;17.85;12.27;;;10.30;99.90;;;10.11;100.00;101205.22;5037746;28;20103;-81
2024/02/04 02:14:43;;;;;;;18.40;13.35;;;10.30;99.90;;;10.11;100.00;101197.22;5020875;28;20053;-81
2024/02/04 02:17:18;;;;;;;21.38;14.57;;;10.30;99.90;;;10.14;100.00;101194.16;5020610;28;20103;-81
2024/02/04 02:19:58;;;;;;;24.77;15.57;;;10.30;99.90;;;10.11;100.00;101205.22;5020714;28;20128;-81
2024/02/04 02:22:39;;;;;;;28.52;17.50;;;10.30;99.90;;;10.12;100.00;101209.53;5037438;28;20092;-81
2024/02/04 02:25:09;;;;;;;23.92;16.48;;;10.30;99.90;;;10.09;100.00;101203.75;5017018;28;20132;-81
2024/02/04 02:27:46;;;;;;;24.95;16.55;;;10.30;99.90;;;10.10;100.00;101205.41;5000304;28;20084;-81
2024/02/04 02:30:15;;;;;;;26.15;17.38;;;10.30;99.90;;;10.12;100.00;101206.88;5018967;28;20049;-81
2024/02/04 02:32:42;;;;;;;19.13;13.80;;;10.30;99.90;;;10.14;100.00;101198.69;5019965;28;20045;-81
2024/02/04 02:35:10;;;;;;;17.55;12.95;;;10.40;99.90;;;10.11;100.00;101205.22;5019461;28;20068;-81
2024/02/04 02:37:44;;;;;;;19.60;13.95;;;10.40;99.90;;;10.14;100.00;101199.50;5019395;28;20152;-81
2024/02/04 02:40:22;;;;;;;20.90;14.35;;;10.40;99.90;;;10.15;100.00;101202.97;5003683;28;20420;-81
2024/02/04 02:42:53;;;;;;;21.20;14.60;;;10.40;99.90;;;10.16;100.00;101199.34;5036968;28;20042;-81
2024/02/04 02:45:24;;;;;;;19.88;13.63;;;10.40;99.90;;;10.15;100.00;101192.31;5019536;28;20100;-81
2024/02/04 02:47:55;;;;;;;23.67;14.48;;;10.40;99.90;;;10.17;100.00;101191.13;5037463;28;20049;-81
2024/02/04 02:50:23;;;;;;;21.33;14.73;;;10.40;99.90;;;10.15;100.00;101197.66;5019367;28;20453;-81
2024/02/04 02:52:50;;;;;;;21.52;14.65;;;10.40;99.90;;;10.14;100.00;101190.69;5029686;28;20428;-81
2024/02/04 02:55:19;;;;;;;23.73;15.90;;;10.40;99.90;;;10.13;100.00;101200.53;5038832;28;20489;-81
2024/02/04 02:57:47;;;;;;;24.23;15.48;;;10.40;99.90;;;10.15;100.00;101200.31;5022484;28;20114;-81
2024/02/04 03:00:18;;;;;;;29.85;16.90;;;10.40;99.90;;;10.17;100.00;101199.13;5022479;28;20482;-82
2024/02/04 03:02:45;;;;;;;;;;;10.40;99.90;;;10.14;100.00;101198.69;5007997;28;20386;-81
2024/02/04 03:05:13;;;;;;;21.92;14.93;;;10.40;99.90;;;10.12;100.00;101190.88;5018662;28;20011;-81
2024/02/04 03:07:41;;;;;;;28.60;17.20;;;10.40;99.90;;;10.12;100.00;101198.06;5002304;28;20866;-81
2024/02/04 03:10:10;;;;;;;25.25;16.70;;;10.40;99.90;;;10.14;100.00;101186.16;5018952;28;20045;-81
2024/02/04 03:12:39;;;;;;;26.75;17.92;;;10.40;99.90;;;10.10;100.00;101189.41;5036742;28;20033;-81
2024/02/04 03:15:08;;;;;;;28.00;17.75;;;10.40;99.90;;;10.12;100.00;101198.88;5036611;28;20087;-81
2024/02/04 03:17:36;;;;;;;29.42;16.92;;;10.40;99.90;;;10.17;100.00;101191.13;5002270;28;20128;-81
2024/02/04 03:20:04;;;;;;;29.52;16.60;;;10.40;99.90;;;10.21;100.00;101194.25;5018526;28;20045;-81
2024/02/04 03:22:32;;;;;;;27.27;17.55;;;10.40;99.90;;;10.24;100.00;101196.53;5013668;28;20041;-81
2024/02/04 03:25:00;;;;;;;31.95;18.02;;;10.40;99.90;;;10.21;100.00;101192.41;5038144;28;20048;-81
2024/02/04 03:27:27;;;;;;;32.35;18.38;;;10.40;99.90;;;10.22;100.00;101188.72;5034957;28;20049;-81
2024/02/04 03:29:56;;;;;;;28.17;17.83;;;10.40;99.90;;;10.25;100.00;101188.38;5018312;28;20049;-81
2024/02/04 03:32:23;;;;;;;28.27;18.42;;;10.40;99.90;;;10.26;100.00;101182.03;5018267;28;20152;-81
2024/02/04 03:34:51;;;;;;;32.28;18.63;;;10.40;99.90;;;10.25;100.00;101177.72;5018493;28;20099;-81
2024/02/04 03:37:19;;;;;;;29.88;18.88;;;10.40;99.90;;;10.22;100.00;101169.25;5051378;28;20037;-81
2024/02/04 03:39:46;;;;;;;33.03;19.10;;;10.40;99.90;;;10.19;100.00;101173.09;5034428;28;20049;-81
2024/02/04 03:42:13;;;;;;;30.88;18.27;;;10.40;99.90;;;10.22;100.00;101167.41;5018022;28;20041;-81
2024/02/04 03:44:41;;;;;;;27.98;17.90;;;10.40;99.90;;;10.25;100.00;101161.72;5018739;28;20045;-81
2024/02/04 03:47:10;;;;;;;31.48;17.42;;;10.40;99.90;;;10.23;100.00;101160.22;5018490;28;20046;-81
2024/02/04 03:49:37;;;;;;;31.98;19.00;;;10.40;99.90;;;10.25;100.00;101156.38;5001966;28;20055;-81
2024/02/04 03:52:06;;;;;;;32.88;19.42;;;10.50;99.90;;;10.23;100.00;101158.38;5024945;28;20089;-81
2024/02/04 03:54:33;;;;;;;35.38;20.55;;;10.40;99.90;;;10.23;100.00;101165.53;5037845;28;20053;-81
2024/02/04 03:57:00;;;;;;;33.03;20.33;;;10.40;99.90;;;10.26;100.00;101168.69;5022028;28;20048;-81
2024/02/04 03:59:28;;;;;;;40.90;21.90;;;10.40;99.90;;;10.26;100.00;101170.53;5007361;28;20076;-81
2024/02/04 04:01:57;;;;;;;42.08;23.38;;;10.50;99.90;;;10.26;100.00;101179.34;5018075;28;20041;-82
2024/02/04 04:04:26;;;;;;;50.70;24.60;;;10.50;99.90;;;10.29;100.00;101170.97;5035018;28;20099;-82
2024/02/04 04:06:54;;;;;;;65.18;27.35;;;10.50;99.90;;;10.31;100.00;101178.78;5035954;28;20047;-82
2024/02/04 04:09:21;;;;;;;66.53;28.95;;;10.50;99.90;;;10.31;100.00;101154.78;5017762;28;20519;-82
2024/02/04 04:11:49;;;;;;;77.00;33.60;;;10.50;99.90;;;10.30;100.00;101151.31;5017768;28;20092;-81
2024/02/04 04:14:16;;;;;;;139.57;56.13;;;10.50;99.90;;;10.32;100.00;101151.94;5017713;28;20045;-81
2024/02/04 04:16:44;;;;;;;216.63;110.30;;;10.50;99.90;;;10.30;100.00;101155.81;5017972;28;20053;-81
2024/02/04 04:19:12;;;;;;;323.40;140.27;;;10.50;99.90;;;10.27;99.89;101151.69;5035713;28;20101;-81
2024/02/04 04:21:41;;;;;;;247.05;125.38;;;10.50;99.90;;;10.28;100.00;101155.97;5067271;28;20041;-81
2024/02/04 04:24:08;;;;;;;309.75;142.68;;;10.50;99.90;;;10.27;100.00;101165.00;5037635;28;20041;-81
2024/02/04 04:26:36;;;;;;;236.98;121.90;;;10.50;99.90;;;10.25;100.00;101172.38;5014092;28;20532;-81
2024/02/04 04:29:04;;;;;;;207.57;113.45;;;10.50;99.90;;;10.26;100.00;101173.22;5001287;28;20468;-81
2024/02/04 04:31:31;;;;;;;157.23;94.10;;;10.50;99.90;;;10.25;100.00;101175.06;5065300;28;20049;-81
2024/02/04 04:33:59;;;;;;;106.25;64.28;;;10.50;99.90;;;10.25;100.00;101180.38;5055221;28;20385;-81
2024/02/04 04:36:26;;;;;;;72.75;47.65;;;10.50;99.90;;;10.24;100.00;101186.72;5004217;28;20566;-81
2024/02/04 04:38:55;;;;;;;67.78;41.42;;;10.50;99.90;;;10.24;100.00;101191.22;5036869;28;20134;-81
2024/02/04 04:41:22;;;;;;;48.80;30.95;;;10.50;99.90;;;10.21;100.00;101187.06;5022361;28;20046;-81
2024/02/04 04:43:51;;;;;;;47.88;29.58;;;10.40;99.90;;;10.19;100.00;101189.09;5035341;28;20103;-81
2024/02/04 04:46:18;;;;;;;37.17;25.60;;;10.40;99.90;;;10.21;100.00;101200.41;5000398;28;20524;-81
2024/02/04 04:48:45;;;;;;;35.70;22.10;;;10.40;99.90;;;10.20;99.75;101196.09;5035148;28;20132;-81
2024/02/04 04:51:13;;;;;;;34.85;21.42;;;10.40;99.90;;;10.15;99.65;101187.84;5034386;28;20049;-81
2024/02/04 04:53:40;;;;;;;32.30;20.58;;;10.40;99.90;;;10.18;99.67;101187.44;5016516;28;20091;-81
2024/02/04 04:56:09;;;;;;;33.00;20.45;;;10.40;99.90;;;10.20;99.64;101182.75;5033208;28;20038;-81
2024/02/04 04:58:37;;;;;;;33.90;20.17;;;10.40;99.90;;;10.22;99.67;101178.06;5034450;28;20116;-81
2024/02/04 05:01:06;;;;;;;35.03;20.40;;;10.40;99.90;;;10.21;99.16;101164.94;5033950;28;20092;-81
2024/02/04 05:03:34;;;;;;;35.38;20.83;;;10.40;99.90;;;10.19;98.86;101175.75;5016471;28;20055;-81
2024/02/04 05:06:02;;;;;;;33.85;20.23;;;10.40;99.90;;;10.21;98.98;101159.59;5034834;28;20567;-81
2024/02/04 05:08:29;;;;;;;37.53;19.75;;;10.40;99.90;;;10.23;98.96;101174.38;5017064;28;20046;-81
2024/02/04 05:10:56;;;;;;;36.90;20.30;;;10.40;99.90;;;10.23;98.75;101168.22;5029530;28;20072;-81
2024/02/04 05:13:25;;;;;;;31.10;19.52;;;10.40;99.90;;;10.21;98.49;101155.09;5026812;28;20053;-81
2024/02/04 05:15:53;;;;;;;29.95;19.90;;;10.40;99.90;;;10.21;98.38;101160.41;5033858;28;20055;-81
2024/02/04 05:18:20;;;;;;;33.10;19.67;;;10.40;99.90;;;10.25;98.58;101171.56;5034372;28;20125;-81
2024/02/04 05:20:48;;;;;;;33.55;19.80;;;10.40;99.90;;;10.23;98.26;101170.88;5016408;28;20481;-81
2024/02/04 05:23:16;;;;;;;31.02;18.95;;;10.40;99.90;;;10.17;97.52;101172.47;5016556;28;20501;-81
2024/02/04 05:25:43;;;;;;;31.17;18.83;;;10.40;99.90;;;10.21;97.69;101171.09;4982545;28;20045;-82
2024/02/04 05:28:10;;;;;;;31.45;18.05;;;10.50;99.90;;;10.21;97.36;101180.94;5041214;28;20042;-82
2024/02/04 05:30:39;;;;;;;29.67;17.65;;;10.40;99.90;;;10.20;97.33;101180.09;5033791;28;20084;-81
2024/02/04 05:33:09;;;;;;;29.52;17.35;;;10.40;99.90;;;10.24;97.02;101169.88;5034039;28;20045;-81
2024/02/04 05:35:37;;;;;;;34.15;17.70;;;10.40;99.90;;;10.25;96.89;101155.56;5000244;28;20111;-81
2024/02/04 05:38:05;;;;;;;30.52;16.85;;;10.40;99.90;;;10.28;97.07;101155.97;5016757;28;20087;-81
2024/02/04 05:40:33;;;;;;;31.90;18.92;;;10.40;99.90;;;10.27;96.69;101158.84;5033975;28;20519;-82
2024/02/04 05:43:05;;;;;;;30.48;18.40;;;10.40;99.90;;;10.26;96.67;101152.69;5034427;28;20045;-82
2024/02/04 05:45:33;;;;;;;32.17;19.35;;;10.50;99.90;;;10.26;96.54;101141.22;5015810;28;20563;-82
2024/02/04 05:48:02;;;;;;;36.30;22.42;;;10.40;99.90;;;10.22;96.27;101132.75;5033973;28;20128;-82
2024/02/04 05:50:29;;;;;;;43.92;27.13;;;10.40;99.90;;;10.24;96.41;101135.22;5033835;28;20108;-82
2024/02/04 05:52:57;;;;;;;46.15;30.40;;;10.50;99.90;;;10.24;96.39;101138.72;5034174;28;20045;-82
2024/02/04 05:55:24;;;;;;;55.97;33.47;;;10.40;99.90;;;10.25;96.45;101134.25;5049571;28;20045;-82
2024/02/04 05:57:52;;;;;;;63.55;39.03;;;10.40;99.90;;;10.25;96.40;101140.41;5034118;28;20556;-82
2024/02/04 06:00:20;;;;;;;72.45;42.75;;;10.40;99.90;;;10.25;96.31;101132.41;5033560;28;20034;-81
2024/02/04 06:02:47;;;;;;;72.20;43.03;;;10.40;99.90;;;10.28;96.32;101137.31;5016542;28;20054;-81
2024/02/04 06:05:16;;;;;;;70.68;41.47;;;10.40;99.90;;;10.32;96.60;101129.78;5034321;28;20052;-82
2024/02/04 06:07:44;;;;;;;61.60;37.47;;;10.50;99.90;;;10.34;96.47;101113.56;5049567;28;20239;-81
2024/02/04 06:10:12;;;;;;;51.97;33.60;;;10.50;99.90;;;10.34;96.15;101132.22;5033889;28;20049;-81
2024/02/04 06:12:40;;;;;;;54.13;31.95;;;10.50;99.90;;;10.35;96.29;101125.91;5049338;28;20080;-82
2024/02/04 06:15:14;;;;;;;53.15;31.00;;;10.50;99.90;;;10.29;96.10;101127.47;5034100;28;20046;-82
2024/02/04 06:17:42;;;;;;;51.72;28.83;;;10.50;99.90;;;10.28;96.39;101134.66;5049198;28;20049;-82
2024/02/04 06:20:11;;;;;;;50.85;27.90;;;10.50;99.90;;;10.26;96.57;101126.03;5029316;28;20124;-82
2024/02/04 06:22:40;;;;;;;41.13;26.98;;;10.50;99.90;;;10.24;96.45;101120.06;5012566;28;20464;-82
2024/02/04 06:25:08;;;;;;;52.70;27.85;;;10.40;99.90;;;10.22;96.78;101130.06;5034630;28;20061;-82
2024/02/04 06:27:36;;;;;;;50.47;27.73;;;10.40;99.90;;;10.21;97.04;101123.09;5016797;28;20076;-82
2024/02/04 06:30:04;;;;;;;50.55;27.92;;;10.40;99.90;;;10.24;97.17;101108.56;5003415;28;20107;-81
2024/02/04 06:32:31;;;;;;;47.85;27.02;;;10.40;99.90;;;10.23;97.54;101104.25;5019418;28;20068;-81
2024/02/04 06:34:59;;;;;;;44.70;26.67;;;10.40;99.90;;;10.22;97.60;101099.94;5037723;28;20037;-82
2024/02/04 06:37:26;;;;;;;47.58;26.05;;;10.40;99.90;;;10.22;97.85;101091.94;5036946;28;20051;-82
2024/02/04 06:39:55;;;;;;;46.75;25.63;;;10.50;99.90;;;10.23;98.11;101099.72;5047640;28;20046;-81
2024/02/04 06:42:22;;;;;;;46.17;26.13;;;10.40;99.90;;;10.23;98.11;101102.38;5017366;28;20494;-81
2024/02/04 06:44:50;;;;;;;47.42;26.83;;;10.40;99.90;;;10.22;98.20;101116.75;5017480;28;20043;-81
2024/02/04 06:47:17;;;;;;;47.22;26.05;;;10.40;99.90;;;10.22;98.26;101103.41;4999816;28;20144;-81
2024/02/04 06:49:46;;;;;;;47.50;27.08;;;10.40;99.90;;;10.19;98.33;101095.78;5003880;28;20231;-81
2024/02/04 06:52:13;;;;;;;46.75;25.02;;;10.40;99.90;;;10.17;98.46;101092.50;5022525;28;20044;-81
2024/02/04 06:54:40;;;;;;;40.47;22.33;;;10.40;99.90;;;10.12;98.82;101092.25;5056697;28;20091;-81
2024/02/04 06:57:09;;;;;;;47.70;22.95;;;10.40;99.90;;;10.15;98.95;101091.88;5056533;28;20428;-81
2024/02/04 06:59:37;;;;;;;43.63;23.38;;;10.40;99.90;;;10.15;99.14;101085.72;5047765;28;20140;-81
2024/02/04 07:02:04;;;;;;;49.67;26.58;;;10.40;99.90;;;10.16;99.27;101082.06;5036853;28;20041;-81
2024/02/04 07:04:32;;;;;;;68.15;29.65;;;10.40;99.90;;;10.18;99.35;101086.16;5018759;28;20550;-81
2024/02/04 07:06:59;;;;;;;56.42;29.40;;;10.40;99.90;;;10.18;99.48;101096.81;5043081;28;20549;-81
2024/02/04 07:09:27;;;;;;;56.28;30.15;;;10.40;99.90;;;10.19;99.34;101089.66;5002079;28;20429;-82
2024/02/04 07:11:54;;;;;;;46.88;27.77;;;10.40;99.90;;;10.19;99.43;101092.31;5028730;28;20509;-81
2024/02/04 07:14:23;;;;;;;50.10;27.95;;;10.40;99.90;;;10.18;99.07;101091.47;5036363;28;20111;-82
2024/02/04 07:16:51;;;;;;;55.63;27.38;;;10.40;99.90;;;10.17;99.25;101084.50;5017964;28;20076;-82
2024/02/04 07:19:19;;;;;;;53.85;28.35;;;10.40;99.90;;;10.18;99.23;101080.00;5018471;28;20069;-81
2024/02/04 07:21:46;;;;;;;55.65;27.15;;;10.40;99.90;;;10.16;99.22;101092.72;5036031;28;20544;-84
2024/02/04 07:24:14;;;;;;;44.72;26.25;;;10.40;99.90;;;10.18;99.32;101096.81;5017308;28;20037;-85
2024/02/04 07:26:41;;;;;;;47.70;24.58;;;10.40;99.90;;;10.20;99.41;101108.13;5035409;28;20064;-86
2024/02/04 07:29:09;;;;;;;43.83;24.33;;;10.40;99.90;;;10.20;99.48;101113.47;5017572;28;20049;-86
2024/02/04 07:31:38;;;;;;;44.78;24.33;;;10.40;99.90;;;10.18;99.18;101123.47;5035527;28;20037;-86
2024/02/04 07:34:05;;;;;;;40.38;22.38;;;10.40;99.90;;;10.13;99.15;101117.06;5035370;28;20040;-86
2024/02/04 07:36:32;;;;;;;41.28;21.83;;;10.40;99.90;;;10.14;99.47;101111.53;5050714;28;20493;-85
2024/02/04 07:39:02;;;;;;;35.53;20.13;;;10.40;99.90;;;10.11;99.22;101114.59;5017027;28;20049;-85
2024/02/04 07:41:29;;;;;;;31.27;18.45;;;10.40;99.90;;;10.14;99.48;101105.38;5016874;28;20057;-85
2024/02/04 07:43:57;;;;;;;28.42;17.13;;;10.40;99.90;;;10.13;99.46;101104.56;5034392;28;20089;-85
2024/02/04 07:46:24;;;;;;;29.67;16.10;;;10.40;99.90;;;10.11;99.37;101105.78;5017066;28;20065;-85
2024/02/04 07:48:53;;;;;;;35.53;16.65;;;10.40;99.90;;;10.12;99.62;101102.09;5015723;28;20046;-86
2024/02/04 07:51:21;;;;;;;29.95;16.15;;;10.40;99.90;;;10.12;99.98;101108.25;5013872;28;20078;-84
2024/02/04 07:53:48;;;;;;;29.95;16.23;;;10.40;99.90;;;10.16;99.99;101111.38;4998181;28;20149;-85
2024/02/04 07:56:16;;;;;;;31.27;17.25;;;10.40;99.90;;;10.18;100.00;101094.16;4981795;28;20057;-87
2024/02/04 07:58:43;;;;;;;33.30;18.20;;;10.40;99.90;;;10.21;99.93;101100.94;5000654;28;20048;-87
2024/02/04 08:01:11;;;;;;;33.60;19.48;;;10.40;99.90;;;10.17;100.00;101111.16;5000821;28;20560;-87
2024/02/04 08:03:38;;;;;;;27.60;16.67;;;10.40;99.90;;;10.15;99.96;101102.56;5016802;28;20049;-87
2024/02/04 08:06:08;;;;;;;23.98;14.48;;;10.40;99.90;;;10.16;99.99;101106.88;5016673;28;20132;-86
2024/02/04 08:08:36;;;;;;;21.17;12.90;;;10.40;99.90;;;10.15;99.55;101115.03;5034509;28;20073;-86
2024/02/04 08:11:04;;;;;;;17.95;10.40;;;10.40;99.90;;;10.08;99.44;101112.31;5034722;28;20437;-86
2024/02/04 08:13:33;;;;;;;19.98;10.93;;;10.40;99.90;;;10.11;99.47;101117.28;5034479;28;20504;-86
2024/02/04 08:16:00;;;;;;;18.27;9.45;;;10.40;99.90;;;10.10;99.41;101125.44;5035147;28;20048;-83
2024/02/04 08:18:28;;;;;;;12.05;7.00;;;10.40;99.90;;;10.00;98.68;101115.09;5017714;28;20092;-82
2024/02/04 08:20:56;;;;;;;16.80;8.32;;;10.40;99.90;;;10.04;98.83;101117.19;5018401;28;20596;-83
2024/02/04 08:23:25;;;;;;;14.23;8.02;;;10.40;99.90;;;10.09;98.76;101108.63;5019141;28;20049;-82
2024/02/04 08:25:53;;;;;;;14.07;8.20;;;10.40;99.90;;;10.11;98.86;101106.63;5036728;28;20037;-82
2024/02/04 08:28:20;;;;;;;13.10;8.10;;;10.40;99.90;;;10.18;99.05;101107.47;5035098;28;20045;-82
2024/02/04 08:30:47;;;;;;;14.95;7.72;;;10.40;99.90;;;10.18;98.88;101088.81;5035511;28;20095;-82
2024/02/04 08:33:15;;;;;;;14.13;7.10;;;10.40;99.90;;;10.14;98.40;101095.56;5047797;28;20056;-82
2024/02/04 08:35:43;;;;;;;13.77;7.70;;;10.40;99.90;;;10.18;98.52;101099.47;5039841;28;20120;-82
2024/02/04 08:38:10;;;;;;;12.95;7.80;;;10.40;99.90;;;10.21;98.58;101100.94;5014941;28;20057;-82
2024/02/04 08:40:39;;;;;;;13.23;7.60;;;10.40;99.90;;;10.22;98.62;101121.25;5033198;28;20045;-82
2024/02/04 08:43:06;;;;;;;12.85;7.40;;;10.40;99.90;;;10.24;98.77;101116.56;5033329;28;20057;-82
2024/02/04 08:45:34;;;;;;;15.02;7.25;;;10.40;99.90;;;10.27;98.59;101109.03;5033296;28;20068;-82
2024/02/04 08:48:01;;;;;;;18.40;8.50;;;10.40;99.90;;;10.26;98.50;101099.38;5032334;28;20073;-82
2024/02/04 08:50:28;;;;;;;10.00;5.82;;;10.40;99.90;;;10.22;98.28;101099.94;5014744;28;20042;-82
2024/02/04 08:52:56;;;;;;;10.23;5.88;;;10.40;99.90;;;10.19;97.87;101105.63;4982288;28;20473;-82
2024/02/04 08:55:26;;;;;;;9.02;5.18;;;10.40;99.90;;;10.23;97.88;101101.56;5034559;28;20033;-82
2024/02/04 08:57:55;;;;;;;8.75;4.82;;;10.40;99.90;;;10.21;97.75;101093.78;5034710;28;20440;-82
2024/02/04 09:00:22;;;;;;;7.57;4.50;;;10.50;99.90;;;10.17;97.53;101091.69;5035376;28;20052;-83
2024/02/04 09:02:49;;;;;;;7.07;4.57;;;10.40;99.90;;;10.14;97.81;101092.06;5034620;28;20041;-83
2024/02/04 09:05:18;;;;;;;10.95;5.97;;;10.40;99.90;;;10.18;98.13;101096.81;5034717;28;20516;-83
2024/02/04 09:07:45;;;;;;;11.52;8.40;;;10.50;99.90;;;10.16;98.69;101093.53;5035671;28;20099;-82
2024/02/04 09:10:12;;;;;;;17.05;10.18;;;10.40;99.90;;;10.20;99.10;101092.13;5035122;28;20039;-82
2024/02/04 09:12:40;;;;;;;17.63;11.80;;;10.40;99.90;;;10.24;99.29;101082.75;5001016;28;20058;-82
2024/02/04 09:15:10;;;;;;;24.92;15.63;;;10.50;99.90;;;10.25;99.27;101095.06;5001328;28;20156;-82
2024/02/04 09:17:37;;;;;;;28.15;16.38;;;10.50;99.90;;;10.19;99.36;101087.78;5035189;28;20045;-82
2024/02/04 09:20:07;;;;;;;25.70;16.75;;;10.40;99.90;;;10.25;99.54;101097.75;5017634;28;20044;-82
2024/02/04 09:22:34;;;;;;;30.95;18.15;;;10.50;99.90;;;10.27;99.89;101081.53;5033925;28;20128;-82
2024/02/04 09:25:03;;;;;;;29.17;17.40;;;10.50;99.90;;;10.27;99.54;101084.22;5016989;28;20493;-83
2024/02/04 09:27:30;;;;;;;30.95;16.77;;;10.50;99.90;;;10.25;99.67;101092.41;5000953;28;20038;-83
2024/02/04 09:29:58;;;;;;;25.63;16.45;;;10.50;99.90;;;10.24;99.78;101087.25;5016988;28;20467;-83
2024/02/04 09:32:28;;;;;;;26.00;15.90;;;10.50;99.90;;;10.27;99.74;101090.34;5034562;28;20037;-82
2024/02/04 09:34:55;;;;;;;30.40;16.75;;;10.60;99.90;;;10.28;100.00;101102.66;5000886;28;20061;-82
2024/02/04 09:37:23;;;;;;;29.13;15.10;;;10.60;99.90;;;10.25;99.67;101092.41;5000686;28;20045;-82
2024/02/04 09:39:50;;;;;;;23.90;14.40;;;10.50;99.90;;;10.28;99.64;101092.00;5034621;28;20091;-83
2024/02/04 09:42:23;;;;;;;24.40;14.82;;;10.60;99.90;;;10.31;99.42;101093.47;5016878;28;20046;-82
2024/02/04 09:44:51;;;;;;;22.50;13.70;;;10.60;99.90;;;10.32;99.58;101097.78;5017434;28;20087;-82
2024/02/04 09:47:18;;;;;;;24.05;14.07;;;10.60;99.90;;;10.34;99.52;101097.56;5034959;28;20543;-82
2024/02/04 09:49:48;;;;;;;21.45;13.20;;;10.60;99.90;;;10.33;99.47;101088.75;5035091;28;20038;-82
2024/02/04 09:52:22;;;;;;;23.35;14.23;;;10.60;99.90;;;10.32;99.39;101093.25;5034672;28;20509;-82
2024/02/04 09:54:56;;;;;;;25.52;15.50;;;10.60;99.90;;;10.35;99.56;101091.25;5017452;28;20073;-82
2024/02/04 09:57:24;;;;;;;26.45;14.57;;;10.60;99.90;;;10.38;99.37;101091.66;5016522;28;20045;-82
2024/02/04 09:59:51;;;;;;;27.40;15.93;;;10.60;99.90;;;10.35;99.39;101093.91;5034485;28;20558;-82
2024/02/04 10:02:21;;;;;;;24.98;16.75;;;10.60;99.90;;;10.32;99.39;101097.78;5034922;28;20415;-82
2024/02/04 10:04:54;;;;;;;29.15;18.73;;;10.60;99.90;;;10.32;99.60;101093.25;5020965;28;20041;-81